createdAt,value
2017-10-31T00:01:50.488Z,77.80
2017-10-31T00:06:53.669Z,77.80
2017-10-31T00:11:56.245Z,78.10
2017-10-31T00:16:59.593Z,78.20
2017-10-31T00:22:02.175Z,78.60
2017-10-31T00:27:05.209Z,78.80
2017-10-31T00:32:07.787Z,79.40
2017-10-31T00:37:11.106Z,79.80
2017-10-31T00:42:13.730Z,80.00
2017-10-31T00:47:16.696Z,80.50
2017-10-31T00:52:19.295Z,81.00
2017-10-31T00:57:22.283Z,81.40
2017-10-31T01:02:25.700Z,82.10
2017-10-31T01:07:29.336Z,82.10
2017-10-31T01:12:31.926Z,82.30
2017-10-31T01:17:35.536Z,83.00
2017-10-31T01:22:39.313Z,83.20
2017-10-31T01:27:42.440Z,83.20
2017-10-31T01:32:46.031Z,84.00
2017-10-31T01:37:49.121Z,83.90
2017-10-31T01:42:51.807Z,84.10
2017-10-31T01:47:55.240Z,84.70
2017-10-31T01:52:57.851Z,84.70
2017-10-31T01:58:01.303Z,85.10
2017-10-31T02:03:04.047Z,85.30
2017-10-31T02:08:08.328Z,85.90
2017-10-31T02:13:10.984Z,85.90
2017-10-31T02:18:15.426Z,86.60
2017-10-31T02:23:18.995Z,86.90
2017-10-31T02:28:22.342Z,86.90
2017-10-31T02:33:25.833Z,87.20
2017-10-31T02:38:40.816Z,87.20
2017-10-31T02:43:43.439Z,87.60
2017-10-31T02:48:46.239Z,87.90
2017-10-31T02:53:49.624Z,88.40
2017-10-31T02:58:53.142Z,88.40
2017-10-31T03:03:55.768Z,88.50
2017-10-31T03:09:00.100Z,88.60
2017-10-31T03:14:02.724Z,88.50
2017-10-31T03:19:06.863Z,89.30
2017-10-31T03:24:10.251Z,89.30
2017-10-31T03:29:12.918Z,89.30
2017-10-31T03:34:15.592Z,89.70
2017-10-31T03:39:19.320Z,90.00
2017-10-31T03:44:21.934Z,90.00
2017-10-31T03:49:24.596Z,90.00
2017-10-31T03:54:27.983Z,90.40
2017-10-31T03:59:31.033Z,90.20
2017-10-31T04:04:34.406Z,90.40
2017-10-31T04:09:37.654Z,90.40
2017-10-31T04:14:41.048Z,90.60
2017-10-31T04:19:44.480Z,90.60
2017-10-31T04:24:47.118Z,90.60
2017-10-31T04:29:50.578Z,90.70
2017-10-31T04:34:53.203Z,90.70
2017-10-31T04:39:57.522Z,90.80
2017-10-31T04:45:00.156Z,90.80
2017-10-31T04:50:03.793Z,90.90
2017-10-31T04:55:06.407Z,90.90
2017-10-31T05:00:09.866Z,90.90
2017-10-31T05:05:12.441Z,90.90
2017-10-31T05:10:15.202Z,90.90
2017-10-31T05:15:17.810Z,91.00
2017-10-31T05:20:21.365Z,91.00
2017-10-31T05:25:23.964Z,91.00
2017-10-31T05:30:26.921Z,91.20
2017-10-31T05:35:29.549Z,91.20
2017-10-31T05:40:32.207Z,91.30
2017-10-31T05:45:35.592Z,91.30
2017-10-31T05:50:38.477Z,91.30
2017-10-31T05:55:41.089Z,91.40
2017-10-31T06:00:43.706Z,91.40
2017-10-31T06:05:46.329Z,91.50
2017-10-31T06:10:48.896Z,91.60
2017-10-31T06:15:53.023Z,91.80
2017-10-31T06:20:58.125Z,91.90
2017-10-31T06:26:06.322Z,91.90
2017-10-31T06:31:15.230Z,91.90
2017-10-31T06:36:17.838Z,92.20
2017-10-31T06:41:20.615Z,91.80
2017-10-31T06:46:23.202Z,91.80
2017-10-31T06:51:26.551Z,91.70
2017-10-31T06:56:29.183Z,92.00
2017-10-31T07:01:31.844Z,91.60
2017-10-31T07:06:34.431Z,91.60
2017-10-31T07:11:37.099Z,91.60
2017-10-31T07:16:40.486Z,91.50
2017-10-31T07:21:43.238Z,91.50
2017-10-31T07:26:45.884Z,91.50
2017-10-31T07:31:49.446Z,91.40
2017-10-31T07:36:52.072Z,91.30
2017-10-31T07:41:55.761Z,91.20
2017-10-31T07:46:59.135Z,91.00
2017-10-31T07:52:02.671Z,91.00
2017-10-31T07:57:05.260Z,91.00
2017-10-31T08:02:08.324Z,91.10
2017-10-31T08:07:10.985Z,90.80
2017-10-31T08:12:15.004Z,90.70
2017-10-31T08:17:17.582Z,90.60
2017-10-31T08:22:20.231Z,90.70
2017-10-31T08:27:22.852Z,90.60
2017-10-31T08:32:25.893Z,90.50
2017-10-31T08:37:28.512Z,90.50
2017-10-31T08:42:31.574Z,90.70
2017-10-31T08:47:34.141Z,90.50
2017-10-31T08:52:38.180Z,90.30
2017-10-31T08:57:40.977Z,90.30
2017-10-31T09:02:44.522Z,90.40
2017-10-31T09:07:47.100Z,90.40
2017-10-31T09:12:49.957Z,90.50
2017-10-31T09:17:52.598Z,90.70
2017-10-31T09:22:56.730Z,90.10
2017-10-31T09:28:00.109Z,90.00
2017-10-31T09:33:02.869Z,89.80
2017-10-31T09:38:05.450Z,89.70
2017-10-31T09:43:08.220Z,89.20
2017-10-31T09:48:10.800Z,89.20
2017-10-31T09:53:14.241Z,89.40
2017-10-31T09:58:16.815Z,89.30
2017-10-31T10:03:20.238Z,88.90
2017-10-31T10:08:22.866Z,88.30
2017-10-31T10:13:26.879Z,87.90
2017-10-31T10:18:29.487Z,87.90
2017-10-31T10:23:32.650Z,87.70
2017-10-31T10:28:35.262Z,87.40
2017-10-31T10:33:38.081Z,87.00
2017-10-31T10:38:40.691Z,86.60
2017-10-31T10:43:44.116Z,85.70
2017-10-31T10:48:47.588Z,85.60
2017-10-31T10:53:50.610Z,85.40
2017-10-31T10:58:53.368Z,85.70
2017-10-31T11:03:56.677Z,85.50
2017-10-31T11:08:59.392Z,85.00
2017-10-31T11:14:02.604Z,85.10
2017-10-31T11:19:05.242Z,85.10
2017-10-31T11:24:08.778Z,84.50
2017-10-31T11:29:11.428Z,84.50
2017-10-31T11:34:14.660Z,84.60
2017-10-31T11:39:17.422Z,84.60
2017-10-31T11:44:20.290Z,85.70
2017-10-31T11:49:22.919Z,85.80
2017-10-31T11:54:26.857Z,85.40
2017-10-31T11:59:29.544Z,85.40
2017-10-31T12:04:33.462Z,86.30
2017-10-31T12:09:36.123Z,86.30
2017-10-31T12:14:39.175Z,86.30
2017-10-31T12:19:42.570Z,85.10
2017-10-31T12:24:45.690Z,85.10
2017-10-31T12:29:48.312Z,85.00
2017-10-31T12:34:52.178Z,86.10
2017-10-31T12:39:55.050Z,86.10
2017-10-31T12:44:59.041Z,86.00
2017-10-31T12:50:01.780Z,86.00
2017-10-31T12:55:05.567Z,86.10
2017-10-31T13:00:08.306Z,86.10
2017-10-31T13:05:12.010Z,85.70
2017-10-31T13:10:14.770Z,85.70
2017-10-31T13:15:17.413Z,85.70
2017-10-31T13:20:22.024Z,85.40
2017-10-31T13:25:25.054Z,84.60
2017-10-31T13:30:29.435Z,84.90
2017-10-31T13:35:34.681Z,85.70
2017-10-31T13:40:38.933Z,86.60
2017-10-31T13:45:42.547Z,85.80
2017-10-31T13:50:46.287Z,85.70
2017-10-31T13:55:50.417Z,85.90
2017-10-31T14:00:54.050Z,86.80
2017-10-31T14:05:58.176Z,87.40
2017-10-31T14:11:01.531Z,86.90
2017-10-31T14:16:04.278Z,86.80
2017-10-31T14:21:07.693Z,86.70
2017-10-31T14:26:11.109Z,86.00
2017-10-31T14:31:14.803Z,85.40
2017-10-31T14:36:18.316Z,85.40
2017-10-31T14:41:21.054Z,85.30
2017-10-31T14:46:23.806Z,85.50
2017-10-31T14:51:26.414Z,85.00
2017-10-31T14:56:29.638Z,84.80
2017-10-31T15:01:32.272Z,84.40
2017-10-31T15:06:35.989Z,85.00
2017-10-31T15:11:39.353Z,85.10
2017-10-31T15:16:42.384Z,85.10
2017-10-31T15:21:45.370Z,85.20
2017-10-31T15:26:48.633Z,85.70
2017-10-31T15:31:52.153Z,86.00
2017-10-31T15:36:55.710Z,86.00
2017-10-31T15:41:58.388Z,86.10
2017-10-31T15:47:01.323Z,86.20
2017-10-31T15:52:03.932Z,86.20
2017-10-31T15:57:07.078Z,86.20
2017-10-31T16:02:09.793Z,86.30
2017-10-31T16:07:13.310Z,86.40
2017-10-31T16:12:16.118Z,86.80
2017-10-31T16:17:18.888Z,86.80
2017-10-31T16:22:21.911Z,87.20
2017-10-31T16:27:26.272Z,89.70
2017-10-31T16:32:28.984Z,89.10
2017-10-31T16:37:31.928Z,90.00
2017-10-31T16:42:34.797Z,90.40
2017-10-31T16:47:48.164Z,91.20
2017-10-31T16:52:51.945Z,91.10
2017-10-31T16:57:55.802Z,91.40
2017-10-31T17:02:58.490Z,91.40
2017-10-31T17:08:01.284Z,91.40
2017-10-31T17:13:03.979Z,91.30
2017-10-31T17:18:07.906Z,91.40
2017-10-31T17:23:10.555Z,91.40
2017-10-31T17:28:13.838Z,91.40
2017-10-31T17:33:16.490Z,91.40
2017-10-31T17:38:19.615Z,91.40
2017-10-31T17:43:23.009Z,91.40
2017-10-31T17:48:26.272Z,91.40
2017-10-31T17:53:29.036Z,91.30
2017-10-31T17:58:32.792Z,91.40
2017-10-31T18:03:35.406Z,91.40
2017-10-31T18:08:38.321Z,91.20
2017-10-31T18:13:41.029Z,91.00
2017-10-31T18:18:44.103Z,91.00
2017-10-31T18:23:46.742Z,90.80
2017-10-31T18:28:50.016Z,90.70
2017-10-31T18:33:52.681Z,90.60
2017-10-31T18:38:56.266Z,90.40
2017-10-31T18:43:59.079Z,90.20
2017-10-31T18:49:01.849Z,90.20
2017-10-31T18:54:04.738Z,90.10
2017-10-31T18:59:08.200Z,90.00
2017-10-31T19:04:10.817Z,89.90
2017-10-31T19:09:13.830Z,89.80
2017-10-31T19:14:16.454Z,89.80
2017-10-31T19:19:20.101Z,89.30
2017-10-31T19:24:22.962Z,89.20
2017-10-31T19:29:26.417Z,89.20
2017-10-31T19:34:29.126Z,89.00
2017-10-31T19:39:32.622Z,88.00
2017-10-31T19:44:36.047Z,87.40
2017-10-31T19:49:39.166Z,87.40
2017-10-31T19:54:41.885Z,87.60
2017-10-31T19:59:45.485Z,87.30
2017-10-31T20:04:48.221Z,87.20
2017-10-31T20:09:50.862Z,86.90
2017-10-31T20:14:54.249Z,87.10
2017-10-31T20:19:59.376Z,87.00
2017-10-31T20:25:02.024Z,87.00
2017-10-31T20:30:05.467Z,87.10
2017-10-31T20:35:08.891Z,87.40
2017-10-31T20:40:12.405Z,87.30
2017-10-31T20:45:16.026Z,87.20
2017-10-31T20:50:20.366Z,87.20
2017-10-31T20:55:23.146Z,87.10
2017-10-31T21:00:26.058Z,87.30
2017-10-31T21:05:31.041Z,87.50
2017-10-31T21:10:34.015Z,87.50
2017-10-31T21:15:37.394Z,88.00
2017-10-31T21:20:40.871Z,87.50
2017-10-31T21:25:43.570Z,87.40
2017-10-31T21:30:46.578Z,87.30
2017-10-31T21:35:49.230Z,87.30
2017-10-31T21:40:52.401Z,87.00
2017-10-31T21:45:55.045Z,87.20
2017-10-31T21:50:58.317Z,87.10
2017-10-31T21:56:01.020Z,87.20
2017-10-31T22:01:04.422Z,87.00
2017-10-31T22:06:07.051Z,87.10
2017-10-31T22:11:10.134Z,87.40
2017-10-31T22:16:12.931Z,87.10
2017-10-31T22:21:15.629Z,87.30
2017-10-31T22:26:19.639Z,87.40
2017-10-31T22:31:26.715Z,87.90
2017-10-31T22:36:34.346Z,87.50
2017-10-31T22:41:42.421Z,87.50
2017-10-31T22:46:49.385Z,87.50
2017-10-31T22:51:53.031Z,87.60
2017-10-31T22:56:55.874Z,87.20
2017-10-31T23:01:58.640Z,87.10
2017-10-31T23:07:01.339Z,86.80
2017-10-31T23:12:04.790Z,86.80
2017-10-31T23:17:07.890Z,86.60
2017-10-31T23:22:11.332Z,86.50
2017-10-31T23:27:14.133Z,86.50
2017-10-31T23:32:18.025Z,86.30
2017-10-31T23:37:20.721Z,86.20
2017-10-31T23:42:24.077Z,86.50
2017-10-31T23:47:26.755Z,86.30
2017-10-31T23:52:30.070Z,86.20
2017-10-31T23:57:32.695Z,86.10
